createdAt,value
2019-04-20T00:01:35.998Z,29.48
2019-04-20T00:04:16.141Z,29.66
2019-04-20T00:06:46.346Z,29.82
2019-04-20T00:09:15.849Z,30.12
2019-04-20T00:11:53.313Z,30.19
2019-04-20T00:14:18.955Z,30.57
2019-04-20T00:16:44.199Z,30.81
2019-04-20T00:19:16.199Z,30.79
2019-04-20T00:21:56.361Z,30.87
2019-04-20T00:24:31.092Z,30.97
2019-04-20T00:27:22.097Z,31.08
2019-04-20T00:29:45.331Z,31.23
2019-04-20T00:32:12.561Z,31.47
2019-04-20T00:34:37.253Z,31.68
2019-04-20T00:37:02.621Z,31.65
2019-04-20T00:39:32.115Z,31.90
2019-04-20T00:42:06.556Z,31.94
2019-04-20T00:44:35.972Z,32.07
2019-04-20T00:47:15.585Z,32.26
2019-04-20T00:49:48.398Z,32.51
2019-04-20T00:52:27.515Z,32.65
2019-04-20T00:54:37.012Z,32.86
2019-04-20T00:57:20.425Z,33.11
2019-04-20T00:59:59.154Z,33.38
2019-04-20T01:02:22.194Z,33.65
2019-04-20T01:04:58.283Z,33.84
2019-04-20T01:07:29.085Z,33.98
2019-04-20T01:10:09.123Z,34.30
2019-04-20T01:12:40.617Z,34.43
2019-04-20T01:15:16.895Z,34.81
2019-04-20T01:17:42.925Z,35.08
2019-04-20T01:20:12.121Z,35.32
2019-04-20T01:22:50.998Z,35.47
2019-04-20T01:25:19.511Z,35.70
2019-04-20T01:28:04.494Z,36.03
2019-04-20T01:30:22.529Z,36.18
2019-04-20T01:33:02.372Z,36.28
2019-04-20T01:35:37.531Z,36.46
2019-04-20T01:38:09.647Z,36.59
2019-04-20T01:40:19.143Z,36.70
2019-04-20T01:42:49.002Z,36.78
2019-04-20T01:45:25.656Z,36.93
2019-04-20T01:47:54.106Z,36.99
2019-04-20T01:50:26.167Z,37.12
2019-04-20T01:53:03.457Z,37.33
2019-04-20T01:55:42.585Z,37.57
2019-04-20T01:58:55.319Z,37.67
2019-04-20T02:01:24.290Z,37.81
2019-04-20T02:04:15.775Z,37.91
2019-04-20T02:06:48.837Z,38.10
2019-04-20T02:09:17.163Z,38.36
2019-04-20T02:11:47.356Z,38.61
2019-04-20T02:14:25.664Z,38.92
2019-04-20T02:16:50.833Z,39.20
2019-04-20T02:19:30.529Z,39.26
2019-04-20T02:22:03.857Z,39.42
2019-04-20T02:24:19.632Z,39.55
2019-04-20T02:26:50.101Z,39.72
2019-04-20T02:29:40.623Z,40.04
2019-04-20T02:32:26.493Z,40.20
2019-04-20T02:35:24.063Z,40.41
2019-04-20T02:38:26.683Z,40.54
2019-04-20T02:43:35.783Z,40.90
2019-04-20T02:45:40.454Z,40.97
2019-04-20T02:48:33.353Z,41.12
2019-04-20T02:50:44.234Z,41.17
2019-04-20T02:55:48.303Z,41.59
2019-04-20T02:58:19.843Z,41.78
2019-04-20T03:00:44.786Z,42.03
2019-04-20T03:03:00.137Z,42.25
2019-04-20T03:05:29.784Z,42.53
2019-04-20T03:08:08.931Z,42.77
2019-04-20T03:10:52.444Z,43.02
2019-04-20T03:13:19.850Z,43.25
2019-04-20T03:15:48.342Z,43.44
2019-04-20T03:18:20.373Z,43.71
2019-04-20T03:20:54.418Z,43.84
2019-04-20T03:23:33.556Z,44.15
2019-04-20T03:26:06.418Z,44.28
2019-04-20T03:29:01.571Z,44.41
2019-04-20T03:32:08.470Z,44.68
2019-04-20T03:34:38.254Z,44.83
2019-04-20T03:36:52.019Z,45.12
2019-04-20T03:39:09.275Z,45.15
2019-04-20T03:41:33.028Z,45.25
2019-04-20T03:44:05.634Z,45.40
2019-04-20T03:46:37.640Z,45.36
2019-04-20T03:49:15.168Z,45.51
2019-04-20T03:51:53.086Z,45.35
2019-04-20T03:54:36.997Z,45.27
2019-04-20T03:57:38.414Z,45.34
2019-04-20T04:00:26.944Z,45.49
2019-04-20T04:03:12.564Z,45.52
2019-04-20T04:06:08.367Z,45.74
2019-04-20T04:08:34.414Z,45.77
2019-04-20T04:11:16.317Z,45.40
2019-04-20T04:13:31.501Z,45.44
2019-04-20T04:16:04.843Z,45.50
2019-04-20T04:18:38.630Z,45.41
2019-04-20T04:21:08.433Z,45.21
2019-04-20T04:23:50.353Z,45.30
2019-04-20T04:26:27.451Z,45.28
2019-04-20T04:29:09.620Z,45.20
2019-04-20T04:31:33.813Z,45.24
2019-04-20T04:34:02.387Z,45.25
2019-04-20T04:36:37.557Z,45.09
2019-04-20T04:39:22.825Z,44.95
2019-04-20T04:41:39.958Z,44.87
2019-04-20T04:44:15.262Z,44.86
2019-04-20T04:46:33.849Z,44.75
2019-04-20T04:49:18.025Z,44.75
2019-04-20T04:51:47.086Z,44.93
2019-04-20T04:54:18.432Z,44.83
2019-04-20T04:56:41.718Z,44.96
2019-04-20T04:59:12.782Z,44.89
2019-04-20T05:01:46.963Z,45.14
2019-04-20T05:04:33.901Z,45.07
2019-04-20T05:06:59.443Z,45.16
2019-04-20T05:09:17.663Z,45.33
2019-04-20T05:11:56.804Z,45.28
2019-04-20T05:14:26.243Z,45.41
2019-04-20T05:17:07.684Z,45.53
2019-04-20T05:19:42.919Z,45.38
2019-04-20T05:22:19.343Z,45.38
2019-04-20T05:24:58.056Z,45.20
2019-04-20T05:27:51.048Z,45.33
2019-04-20T05:30:05.674Z,45.08
2019-04-20T05:32:44.918Z,45.04
2019-04-20T05:35:27.000Z,45.06
2019-04-20T05:38:18.193Z,45.11
2019-04-20T05:40:32.766Z,44.59
2019-04-20T05:43:12.742Z,44.16
2019-04-20T05:45:38.861Z,44.21
2019-04-20T05:48:11.937Z,44.29
2019-04-20T05:50:42.223Z,44.12
2019-04-20T05:53:21.305Z,44.11
2019-04-20T05:55:53.251Z,43.56
2019-04-20T05:58:24.625Z,43.19
2019-04-20T06:00:55.353Z,43.32
2019-04-20T06:03:23.282Z,43.17
2019-04-20T06:05:58.293Z,42.90
2019-04-20T06:08:32.993Z,42.51
2019-04-20T06:10:56.422Z,42.69
2019-04-20T06:13:29.936Z,42.19
2019-04-20T06:16:40.281Z,41.92
2019-04-20T06:19:20.903Z,41.96
2019-04-20T06:21:52.908Z,42.22
2019-04-20T06:24:38.074Z,41.72
2019-04-20T06:27:00.618Z,41.44
2019-04-20T06:29:33.562Z,41.15
2019-04-20T06:32:05.081Z,41.07
2019-04-20T06:37:02.852Z,40.49
2019-04-20T06:44:41.489Z,40.30
2019-04-20T06:47:26.757Z,40.22
2019-04-20T06:52:25.958Z,40.06
2019-04-20T06:55:05.474Z,40.09
2019-04-20T06:57:40.613Z,39.89
2019-04-20T07:02:45.732Z,39.63
2019-04-20T07:05:26.004Z,39.73
2019-04-20T07:08:07.094Z,39.83
2019-04-20T07:10:19.505Z,39.87
2019-04-20T07:12:40.923Z,39.70
2019-04-20T07:15:17.729Z,39.61
2019-04-20T07:17:57.657Z,39.71
2019-04-20T07:20:35.229Z,39.36
2019-04-20T07:23:13.523Z,39.42
2019-04-20T07:25:40.760Z,39.35
2019-04-20T07:28:05.844Z,39.41
2019-04-20T07:30:35.685Z,39.59
2019-04-20T07:33:08.547Z,39.71
2019-04-20T07:35:49.372Z,39.75
2019-04-20T07:38:25.592Z,39.59
2019-04-20T07:40:44.136Z,39.02
2019-04-20T07:43:12.944Z,39.36
2019-04-20T07:45:45.959Z,39.30
2019-04-20T07:48:29.290Z,39.53
2019-04-20T07:50:40.781Z,39.56
2019-04-20T07:53:18.806Z,39.62
2019-04-20T07:55:54.127Z,38.99
2019-04-20T07:58:10.781Z,38.75
2019-04-20T08:01:07.900Z,38.45
2019-04-20T08:03:52.601Z,38.27
2019-04-20T08:06:03.677Z,37.95
2019-04-20T08:08:40.615Z,37.58
2019-04-20T08:11:12.485Z,37.90
2019-04-20T08:16:24.429Z,36.98
2019-04-20T08:18:49.872Z,37.59
2019-04-20T08:21:25.730Z,37.52
2019-04-20T08:23:53.684Z,37.39
2019-04-20T08:26:14.040Z,36.35
2019-04-20T08:28:48.612Z,36.95
2019-04-20T08:31:32.261Z,36.90
2019-04-20T08:34:21.323Z,36.42
2019-04-20T08:36:46.074Z,35.82
2019-04-20T08:39:30.405Z,35.39
2019-04-20T08:41:53.571Z,35.45
2019-04-20T08:44:42.891Z,35.76
2019-04-20T08:47:01.368Z,36.48
2019-04-20T08:49:25.167Z,36.46
2019-04-20T08:51:59.990Z,35.92
2019-04-20T08:54:17.036Z,36.12
2019-04-20T08:56:42.430Z,35.72
2019-04-20T09:01:33.739Z,34.80
2019-04-20T09:04:11.489Z,34.90
2019-04-20T09:06:45.711Z,34.59
2019-04-20T09:09:34.747Z,34.08
2019-04-20T09:11:56.112Z,34.22
2019-04-20T09:14:20.897Z,34.14
2019-04-20T09:16:59.776Z,34.21
2019-04-20T09:19:36.702Z,33.91
2019-04-20T09:22:24.315Z,32.80
2019-04-20T09:25:07.496Z,30.84
2019-04-20T09:27:25.329Z,31.05
2019-04-20T09:30:03.378Z,31.46
2019-04-20T09:32:40.206Z,32.36
2019-04-20T09:35:16.934Z,32.03
2019-04-20T09:37:44.648Z,35.27
2019-04-20T09:40:29.289Z,33.49
2019-04-20T09:42:48.732Z,31.66
2019-04-20T09:45:30.581Z,31.48
2019-04-20T09:47:55.330Z,31.30
2019-04-20T09:50:40.871Z,30.34
2019-04-20T09:53:12.807Z,29.40
2019-04-20T09:55:38.014Z,28.73
2019-04-20T09:58:14.841Z,28.58
2019-04-20T10:00:56.817Z,27.47
2019-04-20T10:03:12.931Z,28.38
2019-04-20T10:05:43.353Z,29.37
2019-04-20T10:08:13.694Z,29.38
2019-04-20T10:10:45.593Z,29.26
2019-04-20T10:13:17.393Z,29.83
2019-04-20T10:15:46.282Z,28.96
2019-04-20T10:18:15.433Z,26.14
2019-04-20T10:20:45.360Z,28.03
2019-04-20T10:23:14.531Z,25.15
2019-04-20T10:25:44.700Z,24.91
2019-04-20T10:28:13.955Z,24.06
2019-04-20T10:30:44.298Z,24.16
2019-04-20T10:33:15.473Z,22.64
2019-04-20T10:35:45.535Z,23.46
2019-04-20T10:38:21.765Z,22.11
2019-04-20T10:41:03.472Z,22.17
2019-04-20T10:43:23.866Z,21.41
2019-04-20T10:45:53.274Z,20.56
2019-04-20T10:48:23.535Z,20.49
2019-04-20T10:50:52.893Z,20.52
2019-04-20T10:53:23.771Z,19.88
2019-04-20T10:55:53.569Z,19.42
2019-04-20T10:58:22.779Z,19.02
2019-04-20T11:00:52.009Z,19.07
2019-04-20T11:03:22.800Z,19.20
2019-04-20T11:05:52.958Z,18.79
2019-04-20T11:08:22.497Z,18.15
2019-04-20T11:11:05.143Z,18.20
2019-04-20T11:13:23.540Z,17.86
2019-04-20T11:15:52.757Z,17.85
2019-04-20T11:18:22.330Z,17.95
2019-04-20T11:20:51.455Z,17.57
2019-04-20T11:23:20.601Z,17.14
2019-04-20T11:25:50.516Z,16.32
2019-04-20T11:28:19.928Z,16.82
2019-04-20T11:30:50.092Z,16.16
2019-04-20T11:33:20.384Z,16.20
2019-04-20T11:35:49.938Z,16.00
2019-04-20T11:38:19.721Z,15.98
2019-04-20T11:41:01.505Z,16.04
2019-04-20T11:43:20.154Z,15.89
2019-04-20T11:45:49.304Z,15.18
2019-04-20T11:48:19.163Z,15.14
2019-04-20T11:50:49.477Z,15.05
2019-04-20T11:53:19.381Z,15.14
2019-04-20T11:55:52.121Z,14.86
2019-04-20T11:58:21.785Z,14.80
2019-04-20T12:00:59.402Z,14.73
2019-04-20T12:03:34.205Z,14.34
2019-04-20T12:06:02.809Z,14.64
2019-04-20T12:08:29.283Z,14.17
2019-04-20T12:11:03.120Z,14.35
2019-04-20T12:13:30.870Z,14.24
2019-04-20T12:16:01.435Z,13.73
2019-04-20T12:18:31.673Z,13.72
2019-04-20T12:21:01.165Z,13.97
2019-04-20T12:23:30.608Z,13.83
2019-04-20T12:26:04.778Z,12.89
2019-04-20T12:28:37.995Z,13.17
2019-04-20T12:31:13.147Z,12.89
2019-04-20T12:33:38.263Z,13.01
2019-04-20T12:36:10.249Z,13.20
2019-04-20T12:38:41.201Z,12.96
2019-04-20T12:41:12.497Z,12.79
2019-04-20T12:43:41.921Z,13.16
2019-04-20T12:46:13.635Z,12.96
2019-04-20T12:48:43.784Z,12.60
2019-04-20T12:51:13.442Z,12.57
2019-04-20T12:53:44.514Z,12.19
2019-04-20T12:56:18.314Z,11.97
2019-04-20T12:58:49.404Z,12.43
2019-04-20T13:01:21.061Z,11.59
2019-04-20T13:03:53.188Z,11.47
2019-04-20T13:06:23.833Z,11.42
2019-04-20T13:08:58.415Z,11.13
2019-04-20T13:11:28.767Z,11.76
2019-04-20T13:14:42.225Z,11.62
2019-04-20T13:17:12.393Z,11.06
2019-04-20T13:19:42.040Z,11.39
2019-04-20T13:22:12.808Z,11.18
2019-04-20T13:24:43.150Z,11.25
2019-04-20T13:27:14.328Z,11.44
2019-04-20T13:29:47.196Z,11.16
2019-04-20T13:32:15.950Z,10.78
2019-04-20T13:34:46.566Z,11.12
2019-04-20T13:37:16.048Z,11.20
2019-04-20T13:39:45.304Z,10.74
2019-04-20T13:42:21.192Z,10.39
2019-04-20T13:44:45.999Z,10.36
2019-04-20T13:47:19.093Z,10.53
2019-04-20T13:49:49.195Z,10.15
2019-04-20T13:52:18.428Z,10.63
2019-04-20T13:54:47.567Z,10.79
2019-04-20T13:57:21.717Z,10.66
2019-04-20T13:59:55.865Z,10.03
2019-04-20T14:02:33.515Z,10.21
2019-04-20T14:05:06.659Z,10.50
2019-04-20T14:07:37.458Z,10.43
2019-04-20T14:10:09.261Z,10.65
2019-04-20T14:12:50.599Z,10.44
2019-04-20T14:15:11.185Z,10.25
2019-04-20T14:17:41.404Z,10.61
2019-04-20T14:20:14.980Z,10.40
2019-04-20T14:22:43.011Z,10.07
2019-04-20T14:25:13.187Z,10.02
2019-04-20T14:27:42.744Z,9.92
2019-04-20T14:30:12.998Z,10.51
2019-04-20T14:32:43.024Z,10.14
2019-04-20T14:35:12.940Z,10.27
2019-04-20T14:37:43.716Z,10.01
2019-04-20T14:40:14.459Z,10.00
2019-04-20T14:42:48.624Z,9.75
2019-04-20T14:45:16.524Z,9.83
2019-04-20T14:47:45.940Z,10.13
2019-04-20T14:50:17.977Z,9.98
2019-04-20T14:52:47.305Z,9.99
2019-04-20T14:55:17.720Z,10.10
2019-04-20T14:57:48.142Z,10.02
2019-04-20T15:00:37.465Z,10.11
2019-04-20T15:03:45.470Z,10.03
2019-04-20T15:06:16.233Z,10.05
2019-04-20T15:08:48.371Z,9.71
2019-04-20T15:11:18.828Z,9.89
2019-04-20T15:13:49.033Z,9.78
2019-04-20T15:16:18.745Z,9.59
2019-04-20T15:19:09.658Z,9.73
2019-04-20T15:21:41.782Z,9.80
2019-04-20T15:24:11.391Z,10.12
2019-04-20T15:26:42.493Z,10.01
2019-04-20T15:29:12.580Z,10.45
2019-04-20T15:31:41.990Z,10.69
2019-04-20T15:34:11.277Z,10.85
2019-04-20T15:36:42.291Z,10.85
2019-04-20T15:39:11.705Z,10.68
2019-04-20T15:41:41.108Z,10.64
2019-04-20T15:44:11.211Z,10.58
2019-04-20T15:46:41.654Z,10.61
2019-04-20T15:49:11.265Z,10.42
2019-04-20T15:51:41.781Z,10.77
2019-04-20T15:54:11.486Z,10.67
2019-04-20T15:56:42.473Z,10.86
2019-04-20T15:59:12.752Z,10.94
2019-04-20T16:01:49.350Z,10.56
2019-04-20T16:04:42.658Z,10.73
2019-04-20T16:07:10.898Z,10.59
2019-04-20T16:09:40.491Z,10.76
2019-04-20T16:12:11.027Z,10.54
2019-04-20T16:14:41.741Z,10.47
2019-04-20T16:17:12.514Z,10.30
2019-04-20T16:19:51.402Z,10.55
2019-04-20T16:22:13.474Z,10.59
2019-04-20T16:24:49.030Z,10.59
2019-04-20T16:27:36.174Z,10.91
2019-04-20T16:30:11.567Z,11.18
2019-04-20T16:32:42.646Z,11.70
2019-04-20T16:35:12.372Z,12.23
2019-04-20T16:37:42.656Z,12.28
2019-04-20T16:40:13.629Z,12.50
2019-04-20T16:42:45.111Z,12.62
2019-04-20T16:45:15.120Z,12.71
2019-04-20T16:47:44.588Z,12.87
2019-04-20T16:50:15.013Z,12.60
2019-04-20T16:52:44.979Z,12.58
2019-04-20T16:55:14.778Z,12.65
2019-04-20T16:57:47.530Z,12.88
2019-04-20T17:00:17.776Z,12.80
2019-04-20T17:02:47.986Z,13.05
2019-04-20T17:05:19.495Z,13.22
2019-04-20T17:07:50.964Z,13.40
2019-04-20T17:10:22.383Z,13.73
2019-04-20T17:12:53.657Z,14.10
2019-04-20T17:15:23.607Z,14.22
2019-04-20T17:17:55.180Z,14.20
2019-04-20T17:20:25.721Z,14.31
2019-04-20T17:22:56.209Z,14.53
2019-04-20T17:25:25.972Z,14.88
2019-04-20T17:28:15.018Z,14.99
2019-04-20T17:30:59.016Z,15.21
2019-04-20T17:33:46.465Z,15.31
2019-04-20T17:36:14.465Z,15.38
2019-04-20T17:38:41.793Z,15.37
2019-04-20T17:41:29.135Z,15.54
2019-04-20T17:43:58.861Z,16.11
2019-04-20T17:46:23.749Z,16.00
2019-04-20T17:48:59.789Z,16.39
2019-04-20T17:51:36.154Z,16.46
2019-04-20T17:54:06.863Z,16.27
2019-04-20T17:56:40.465Z,16.47
2019-04-20T17:59:10.381Z,16.91
2019-04-20T18:02:17.547Z,16.80
2019-04-20T18:05:24.185Z,16.92
2019-04-20T18:07:41.082Z,17.10
2019-04-20T18:10:06.741Z,17.10
2019-04-20T18:12:26.898Z,17.06
2019-04-20T18:15:06.192Z,17.26
2019-04-20T18:18:12.330Z,17.19
2019-04-20T18:20:43.043Z,17.31
2019-04-20T18:23:13.104Z,17.67
2019-04-20T18:26:07.837Z,17.47
2019-04-20T18:28:31.439Z,17.54
2019-04-20T18:30:57.339Z,17.70
2019-04-20T18:33:30.182Z,17.87
2019-04-20T18:35:58.337Z,17.89
2019-04-20T18:38:30.562Z,18.08
2019-04-20T18:41:04.598Z,18.24
2019-04-20T18:50:47.368Z,18.64
2019-04-20T18:53:26.805Z,18.63
2019-04-20T18:55:56.064Z,18.93
2019-04-20T18:58:23.223Z,19.29
2019-04-20T19:00:57.084Z,19.22
2019-04-20T19:03:33.700Z,19.05
2019-04-20T19:06:05.571Z,19.06
2019-04-20T19:08:40.513Z,19.46
2019-04-20T19:11:15.100Z,19.46
2019-04-20T19:13:51.141Z,19.31
2019-04-20T19:16:52.904Z,19.27
2019-04-20T19:19:25.805Z,19.51
2019-04-20T19:21:46.016Z,19.55
2019-04-20T19:24:21.159Z,19.65
2019-04-20T19:26:55.695Z,19.63
2019-04-20T19:29:32.766Z,19.55
2019-04-20T19:32:17.165Z,19.61
2019-04-20T19:34:45.387Z,19.67
2019-04-20T19:37:15.873Z,19.63
2019-04-20T19:39:57.181Z,19.81
2019-04-20T19:42:31.126Z,19.66
2019-04-20T19:45:01.949Z,19.62
2019-04-20T19:47:38.433Z,19.79
2019-04-20T19:50:25.155Z,20.05
2019-04-20T19:52:50.394Z,19.94
2019-04-20T19:55:16.113Z,19.79
2019-04-20T19:57:48.859Z,19.73
2019-04-20T19:59:59.856Z,20.04
2019-04-20T20:02:29.897Z,20.11
2019-04-20T20:05:05.348Z,20.34
2019-04-20T20:07:37.727Z,20.07
2019-04-20T20:10:07.756Z,20.02
2019-04-20T20:12:35.724Z,20.08
2019-04-20T20:15:14.820Z,20.18
2019-04-20T20:18:02.290Z,20.31
2019-04-20T20:20:38.215Z,20.45
2019-04-20T20:22:50.501Z,20.56
2019-04-20T20:25:25.780Z,20.64
2019-04-20T20:27:58.412Z,20.78
2019-04-20T20:30:35.337Z,21.03
2019-04-20T20:33:18.874Z,21.08
2019-04-20T20:35:45.885Z,21.02
2019-04-20T20:38:21.540Z,21.51
2019-04-20T20:40:54.924Z,21.64
2019-04-20T20:43:22.738Z,21.76
2019-04-20T20:45:50.519Z,21.86
2019-04-20T20:48:32.499Z,21.83
2019-04-20T20:51:04.924Z,22.12
2019-04-20T20:53:32.859Z,22.40
2019-04-20T20:56:01.836Z,22.29
2019-04-20T20:58:36.140Z,22.51
2019-04-20T21:00:57.641Z,22.63
2019-04-20T21:03:32.235Z,22.70
2019-04-20T21:05:59.951Z,22.69
2019-04-20T21:08:36.224Z,22.81
2019-04-20T21:11:15.203Z,22.81
2019-04-20T21:13:42.393Z,22.94
2019-04-20T21:16:16.664Z,23.14
2019-04-20T21:18:59.869Z,23.06
2019-04-20T21:21:30.169Z,23.05
2019-04-20T21:23:56.020Z,23.65
2019-04-20T21:26:23.239Z,24.12
2019-04-20T21:28:48.093Z,24.29
2019-04-20T21:31:23.623Z,24.56
2019-04-20T21:33:49.070Z,24.75
2019-04-20T21:36:23.772Z,24.80
2019-04-20T21:38:51.850Z,24.97
2019-04-20T21:41:26.086Z,24.99
2019-04-20T21:43:58.336Z,25.12
2019-04-20T21:46:29.888Z,25.05
2019-04-20T21:49:09.741Z,24.92
2019-04-20T21:51:44.655Z,24.93
2019-04-20T21:54:06.790Z,25.02
2019-04-20T21:56:46.102Z,25.16
2019-04-20T21:59:16.436Z,25.48
2019-04-20T22:01:57.762Z,25.65
2019-04-20T22:04:22.491Z,25.70
2019-04-20T22:06:54.294Z,25.60
2019-04-20T22:09:32.340Z,25.65
2019-04-20T22:11:58.097Z,25.61
2019-04-20T22:14:31.327Z,25.45
2019-04-20T22:17:00.822Z,25.73
2019-04-20T22:19:40.119Z,25.41
2019-04-20T22:22:13.818Z,25.37
2019-04-20T22:24:52.105Z,25.39
2019-04-20T22:27:15.951Z,25.43
2019-04-20T22:29:41.797Z,25.69
2019-04-20T22:32:21.750Z,26.17
2019-04-20T22:34:59.261Z,25.88
2019-04-20T22:37:28.708Z,26.08
2019-04-20T22:39:58.363Z,26.28
2019-04-20T22:42:37.913Z,26.28
2019-04-20T22:47:48.170Z,26.63
2019-04-20T22:50:33.992Z,26.71
2019-04-20T22:53:15.081Z,27.01
2019-04-20T22:56:01.251Z,27.06
2019-04-20T22:58:27.435Z,27.27
2019-04-20T23:00:54.237Z,27.59
2019-04-20T23:03:18.824Z,27.84
2019-04-20T23:05:48.969Z,28.04
2019-04-20T23:08:18.391Z,28.07
2019-04-20T23:10:51.449Z,28.32
2019-04-20T23:13:30.363Z,28.47
2019-04-20T23:16:00.856Z,28.51
2019-04-20T23:18:29.492Z,28.66
2019-04-20T23:21:05.037Z,28.72
2019-04-20T23:23:32.527Z,28.76
2019-04-20T23:26:07.156Z,28.90
2019-04-20T23:28:42.148Z,29.12
2019-04-20T23:31:15.211Z,29.25
2019-04-20T23:33:40.198Z,29.41
2019-04-20T23:36:19.225Z,29.48
2019-04-20T23:38:49.023Z,29.70
2019-04-20T23:41:21.927Z,29.75
2019-04-20T23:44:04.541Z,30.11
2019-04-20T23:46:53.440Z,30.06
2019-04-20T23:49:42.827Z,30.10
2019-04-20T23:52:33.171Z,30.15
2019-04-20T23:54:35.413Z,30.23
2019-04-20T23:57:03.894Z,30.55
2019-04-20T23:59:41.157Z,30.71
